Time;durP1;ratioP1;P1;durP2;ratioP2;P2;SDS_P1;SDS_P2;PMS_P1;PMS_P2;Temp;Humidity;BMP_temperature;BMP_pressure;BME280_temperature;BME280_humidity;BME280_pressure;Samples;Min_cycle;Max_cycle;Signal;HPM_P1;HPM_P2
2021/08/16 00:01:31;;;;;;;33.97;23.67;;;22.00;68.70;;;;;;5055977;28;20025;-81
2021/08/16 00:03:56;;;;;;;31.80;22.20;;;21.90;68.80;;;;;;5056280;28;20463;-82
2021/08/16 00:06:22;;;;;;;32.55;22.77;;;21.90;69.00;;;;;;5056253;28;20021;-85
2021/08/16 00:08:48;;;;;;;34.80;22.83;;;21.90;69.20;;;;;;5056238;28;20029;-82
2021/08/16 00:11:14;;;;;;;35.58;22.30;;;21.80;69.30;;;;;;5055606;28;20675;-83
2021/08/16 00:13:40;;;;;;;39.92;25.77;;;21.80;69.50;;;;;;5054788;28;20029;-82
2021/08/16 00:16:06;;;;;;;37.72;26.50;;;21.70;69.70;;;;;;5055958;28;20025;-82
2021/08/16 00:18:33;;;;;;;42.58;27.77;;;21.70;69.90;;;;;;5055405;28;20102;-82
2021/08/16 00:21:00;;;;;;;37.47;26.33;;;21.70;70.10;;;;;;5055701;28;20035;-82
2021/08/16 00:23:26;;;;;;;38.83;26.10;;;21.60;70.20;;;;;;5055636;28;20060;-82
2021/08/16 00:25:51;;;;;;;43.78;27.33;;;21.60;70.40;;;;;;5056040;28;20040;-82
2021/08/16 00:28:17;;;;;;;36.88;25.65;;;21.60;70.50;;;;;;5055381;28;20166;-81
2021/08/16 00:30:43;;;;;;;47.10;27.85;;;21.60;70.60;;;;;;5056254;28;20033;-82
2021/08/16 00:33:08;;;;;;;40.00;27.58;;;21.50;70.70;;;;;;5056092;28;20025;-82
2021/08/16 00:35:34;;;;;;;43.88;29.13;;;21.50;70.80;;;;;;5055629;28;20074;-83
2021/08/16 00:38:00;;;;;;;41.65;28.58;;;21.50;71.00;;;;;;5056056;28;20033;-83
2021/08/16 00:40:26;;;;;;;41.55;28.70;;;21.50;71.30;;;;;;5055595;28;20025;-83
2021/08/16 00:42:52;;;;;;;46.60;29.90;;;21.40;71.40;;;;;;5055827;28;20057;-83
2021/08/16 00:45:17;;;;;;;45.83;30.02;;;21.40;71.60;;;;;;5055362;28;20044;-84
2021/08/16 00:47:43;;;;;;;47.97;29.20;;;21.30;71.80;;;;;;5055641;28;20017;-84
2021/08/16 00:50:11;;;;;;;45.63;30.42;;;21.30;72.00;;;;;;5053056;28;20048;-83
2021/08/16 00:52:38;;;;;;;53.15;30.67;;;21.20;72.20;;;;;;5055650;28;20468;-83
2021/08/16 00:55:04;;;;;;;49.20;30.80;;;21.20;72.40;;;;;;5055663;28;20029;-82
2021/08/16 00:57:32;;;;;;;50.42;31.10;;;21.20;72.50;;;;;;5053835;28;20056;-82
2021/08/16 01:00:01;;;;;;;43.90;29.38;;;21.20;72.70;;;;;;5055040;28;20025;-83
2021/08/16 01:02:27;;;;;;;42.28;29.40;;;21.10;72.90;;;;;;5055276;28;20021;-82
2021/08/16 01:04:54;;;;;;;42.80;29.60;;;21.10;72.90;;;;;;5055488;28;20379;-83
2021/08/16 01:07:20;;;;;;;43.90;28.80;;;21.10;73.00;;;;;;5055289;28;20056;-83
2021/08/16 01:09:46;;;;;;;40.55;27.50;;;21.10;73.10;;;;;;5055230;28;20021;-83
2021/08/16 01:12:12;;;;;;;42.53;28.52;;;21.00;73.10;;;;;;5055074;28;20025;-83
2021/08/16 01:14:38;;;;;;;41.40;28.67;;;21.00;73.20;;;;;;5055064;28;20104;-83
2021/08/16 01:17:04;;;;;;;45.35;28.88;;;21.00;73.40;;;;;;5055044;28;20414;-83
2021/08/16 01:19:29;;;;;;;49.20;28.65;;;21.00;73.50;;;;;;5054897;28;20100;-84
2021/08/16 01:21:55;;;;;;;47.92;28.88;;;21.00;73.60;;;;;;5054746;28;20777;-83
2021/08/16 01:24:21;;;;;;;45.60;30.67;;;21.00;73.70;;;;;;5054866;28;20047;-83
2021/08/16 01:26:47;;;;;;;41.15;28.55;;;20.90;73.70;;;;;;5054607;28;20111;-84
2021/08/16 01:29:19;;;;;;;47.60;28.95;;;20.90;73.90;;;;;;5054199;28;20474;-83
2021/08/16 01:31:44;;;;;;;43.28;30.15;;;20.90;74.10;;;;;;5054450;28;20028;-84
2021/08/16 01:34:11;;;;;;;42.40;29.30;;;21.00;74.10;;;;;;5053834;28;20634;-84
2021/08/16 01:36:37;;;;;;;48.92;29.50;;;20.90;74.20;;;;;;5054311;28;20032;-83
2021/08/16 01:39:03;;;;;;;50.33;29.75;;;20.90;74.30;;;;;;5053927;28;20146;-83
2021/08/16 01:41:29;;;;;;;44.28;28.98;;;20.90;74.40;;;;;;5053068;28;20029;-83
2021/08/16 01:43:55;;;;;;;48.72;30.35;;;20.90;74.40;;;;;;5054475;28;20032;-84
2021/08/16 01:46:21;;;;;;;48.35;30.05;;;20.90;74.40;;;;;;5053192;28;20199;-83
2021/08/16 01:48:46;;;;;;;44.22;29.80;;;20.90;74.40;;;;;;5054651;28;20103;-84
2021/08/16 01:51:12;;;;;;;47.95;30.10;;;20.90;74.40;;;;;;5054594;28;20027;-83
2021/08/16 01:53:38;;;;;;;45.90;29.08;;;20.90;74.40;;;;;;5054353;28;20057;-84
2021/08/16 01:56:04;;;;;;;45.33;29.23;;;20.80;74.40;;;;;;5053844;28;20052;-83
2021/08/16 01:58:29;;;;;;;45.67;30.25;;;20.80;74.40;;;;;;5054132;28;20371;-83
2021/08/16 02:00:55;;;;;;;42.58;28.25;;;20.80;74.40;;;;;;5053630;28;20099;-84
2021/08/16 02:03:21;;;;;;;42.40;29.10;;;20.80;74.50;;;;;;5054322;28;20021;-84
2021/08/16 02:05:46;;;;;;;42.50;27.92;;;20.80;74.40;;;;;;5054285;28;20058;-84
2021/08/16 02:08:12;;;;;;;40.50;29.48;;;20.80;74.40;;;;;;5054223;28;20440;-83
2021/08/16 02:10:39;;;;;;;40.95;28.45;;;20.80;74.40;;;;;;5053949;28;20082;-84
2021/08/16 02:13:05;;;;;;;41.05;28.08;;;20.70;74.30;;;;;;5054080;28;20060;-83
2021/08/16 02:15:30;;;;;;;43.03;28.73;;;20.70;74.40;;;;;;5053909;28;20050;-83
2021/08/16 02:17:56;;;;;;;39.67;28.40;;;20.70;74.50;;;;;;5054037;28;20438;-84
2021/08/16 02:20:22;;;;;;;40.47;28.10;;;20.70;74.60;;;;;;5054168;28;20578;-83
2021/08/16 02:22:48;;;;;;;43.53;28.65;;;20.60;74.70;;;;;;5053923;28;20134;-83
2021/08/16 02:25:14;;;;;;;43.60;28.30;;;20.60;74.80;;;;;;5055002;28;20024;-83
2021/08/16 02:27:48;;;;;;;48.17;29.52;;;20.60;75.00;;;;;;5055197;28;20021;-84
2021/08/16 02:30:15;;;;;;;45.03;28.63;;;20.60;75.20;;;;;;5054012;28;20480;-84
2021/08/16 02:32:41;;;;;;;45.75;30.40;;;20.50;75.20;;;;;;5054218;28;20025;-84
2021/08/16 02:35:08;;;;;;;43.78;28.02;;;20.50;75.30;;;;;;5054257;28;20059;-84
2021/08/16 02:37:33;;;;;;;44.88;29.50;;;20.50;75.40;;;;;;5053877;28;20028;-84
2021/08/16 02:39:59;;;;;;;43.05;29.33;;;20.50;75.50;;;;;;5053676;28;20692;-83
2021/08/16 02:42:26;;;;;;;40.50;28.27;;;20.50;75.70;;;;;;5052168;28;20021;-84
2021/08/16 02:44:51;;;;;;;47.90;30.48;;;20.50;75.70;;;;;;5053530;28;20105;-83
2021/08/16 02:47:21;;;;;;;45.25;30.13;;;20.50;75.80;;;;;;5052118;28;20104;-86
2021/08/16 02:49:50;;;;;;;45.33;29.33;;;20.50;75.90;;;;;;5053220;28;20463;-83
2021/08/16 02:52:17;;;;;;;44.92;30.15;;;20.50;75.90;;;;;;5053494;28;20029;-84
2021/08/16 02:54:44;;;;;;;47.47;29.70;;;20.50;76.00;;;;;;5053143;28;20029;-83
2021/08/16 02:57:12;;;;;;;47.47;29.55;;;20.60;76.20;;;;;;5052963;28;20057;-83
2021/08/16 02:59:39;;;;;;;45.10;29.42;;;20.60;76.20;;;;;;5053062;28;20014;-84
2021/08/16 03:02:06;;;;;;;51.92;28.92;;;20.80;76.00;;;;;;5053079;28;20028;-83
2021/08/16 03:04:31;;;;;;;45.17;29.33;;;21.00;75.70;;;;;;5052681;28;20036;-83
2021/08/16 03:06:57;;;;;;;46.15;29.92;;;21.30;75.20;;;;;;5052934;28;20387;-83
2021/08/16 03:09:26;;;;;;;42.53;28.83;;;21.60;74.40;;;;;;5052812;28;20021;-82
2021/08/16 03:11:52;;;;;;;43.15;26.60;;;22.00;73.50;;;;;;5053376;28;20027;-83
2021/08/16 03:14:18;;;;;;;45.10;27.85;;;22.40;72.40;;;;;;5057199;28;20486;-83
2021/08/16 03:16:44;;;;;;;46.05;28.02;;;22.90;71.30;;;;;;5057266;28;20032;-83
2021/08/16 03:19:10;;;;;;;43.15;27.05;;;23.40;70.00;;;;;;5056988;28;20403;-83
2021/08/16 03:21:35;;;;;;;47.40;27.20;;;23.90;68.70;;;;;;5056841;28;20032;-82
2021/08/16 03:24:01;;;;;;;42.75;27.30;;;24.40;67.30;;;;;;5056761;28;20539;-83
2021/08/16 03:26:27;;;;;;;45.08;27.23;;;25.00;66.00;;;;;;5056994;28;20017;-82
2021/08/16 03:28:52;;;;;;;47.92;26.80;;;25.60;64.50;;;;;;5056687;28;20021;-83
2021/08/16 03:31:19;;;;;;;38.55;26.45;;;26.20;63.20;;;;;;5056659;28;20842;-85
2021/08/16 03:33:45;;;;;;;40.72;26.50;;;26.80;61.80;;;;;;5057051;28;20021;-83
2021/08/16 03:36:11;;;;;;;49.05;26.50;;;27.40;60.50;;;;;;5056954;28;20086;-85
2021/08/16 03:38:38;;;;;;;38.90;27.02;;;28.00;59.20;;;;;;5057070;28;20029;-85
2021/08/16 03:41:04;;;;;;;38.13;25.17;;;28.60;57.90;;;;;;5060615;28;20068;-84
2021/08/16 03:43:30;;;;;;;38.13;25.35;;;29.20;56.70;;;;;;5060292;28;20025;-83
2021/08/16 03:45:55;;;;;;;40.17;25.67;;;29.70;55.50;;;;;;5059727;28;20100;-83
2021/08/16 03:48:21;;;;;;;45.60;25.58;;;30.30;54.50;;;;;;5057879;28;20067;-84
2021/08/16 03:50:47;;;;;;;42.25;26.38;;;30.90;53.40;;;;;;5056560;28;20028;-84
2021/08/16 03:53:13;;;;;;;43.17;26.88;;;31.40;52.40;;;;;;5056613;28;20107;-83
2021/08/16 03:55:39;;;;;;;40.58;26.00;;;31.90;51.40;;;;;;5056445;28;20028;-84
2021/08/16 03:58:05;;;;;;;39.58;25.23;;;32.40;50.60;;;;;;5055527;28;20087;-84
2021/08/16 04:00:31;;;;;;;39.22;26.02;;;32.80;49.80;;;;;;5055401;28;20094;-84
2021/08/16 04:02:57;;;;;;;41.45;24.02;;;33.30;49.10;;;;;;5055051;28;20028;-83
2021/08/16 04:05:22;;;;;;;34.38;23.65;;;33.70;48.40;;;;;;5054464;28;20036;-85
2021/08/16 04:07:48;;;;;;;37.38;24.15;;;34.20;47.60;;;;;;5055598;28;20211;-84
2021/08/16 04:10:15;;;;;;;38.28;24.80;;;34.70;46.80;;;;;;5055410;28;20032;-85
2021/08/16 04:12:41;;;;;;;36.60;24.75;;;35.10;46.10;;;;;;5054788;28;20023;-85
2021/08/16 04:15:15;;;;;;;33.28;24.58;;;35.50;45.30;;;;;;5055507;28;20394;-85
2021/08/16 04:17:41;;;;;;;37.35;24.20;;;35.90;44.60;;;;;;5055354;28;20123;-85
2021/08/16 04:20:09;;;;;;;33.88;23.90;;;36.30;44.10;;;;;;5054902;28;20475;-84
2021/08/16 04:22:35;;;;;;;37.72;24.15;;;36.70;43.40;;;;;;5055414;28;20048;-84
2021/08/16 04:25:01;;;;;;;32.95;22.50;;;37.10;43.00;;;;;;5055451;28;20425;-84
2021/08/16 04:27:27;;;;;;;36.15;22.52;;;37.40;42.50;;;;;;5055279;28;20379;-84
2021/08/16 04:29:53;;;;;;;37.28;24.02;;;37.70;42.00;;;;;;5053512;28;20089;-82
2021/08/16 04:32:19;;;;;;;30.60;23.13;;;38.10;41.80;;;;;;5055100;28;20021;-84
2021/08/16 04:34:44;;;;;;;31.75;21.20;;;38.40;41.40;;;;;;5055097;28;20025;-85
2021/08/16 04:37:10;;;;;;;29.45;20.88;;;38.90;40.90;;;;;;5054379;28;20100;-78
2021/08/16 04:39:36;;;;;;;27.48;20.75;;;39.20;40.30;;;;;;5052467;28;20024;-79
2021/08/16 04:42:02;;;;;;;26.95;19.85;;;39.60;39.90;;;;;;5053494;28;20028;-78
2021/08/16 04:44:28;;;;;;;33.00;21.10;;;40.00;39.40;;;;;;5053556;28;20021;-78
2021/08/16 04:46:53;;;;;;;31.95;21.02;;;40.20;39.00;;;;;;5051976;28;20071;-78
2021/08/16 04:49:19;;;;;;;29.33;20.80;;;40.50;38.80;;;;;;5051835;28;20056;-75
2021/08/16 04:51:45;;;;;;;37.55;21.67;;;40.70;38.50;;;;;;5052929;28;20482;-78
2021/08/16 04:54:10;;;;;;;31.42;21.60;;;40.80;38.20;;;;;;5053457;28;20099;-78
2021/08/16 04:56:38;;;;;;;35.80;21.23;;;41.00;38.00;;;;;;5053205;28;20085;-79
2021/08/16 04:59:04;;;;;;;33.90;21.20;;;41.20;37.90;;;;;;5053235;28;20378;-79
2021/08/16 05:01:30;;;;;;;29.70;20.15;;;41.30;37.80;;;;;;5051689;28;20074;-79
2021/08/16 05:03:56;;;;;;;29.27;19.33;;;41.50;37.70;;;;;;5053374;28;20028;-79
2021/08/16 05:06:29;;;;;;;29.30;20.45;;;41.70;37.70;;;;;;5053271;28;20336;-79
2021/08/16 05:09:07;;;;;;;30.10;19.95;;;41.90;37.40;;;;;;5053352;28;20022;-79
2021/08/16 05:11:33;;;;;;;27.00;19.38;;;42.10;37.10;;;;;;5053017;28;20087;-79
2021/08/16 05:13:58;;;;;;;28.83;18.73;;;42.20;36.90;;;;;;5053246;28;20037;-78
2021/08/16 05:16:25;;;;;;;25.15;19.00;;;42.40;36.70;;;;;;5052502;28;20032;-78
2021/08/16 05:18:52;;;;;;;25.08;18.00;;;42.70;36.60;;;;;;5052494;28;20075;-79
2021/08/16 05:21:18;;;;;;;24.33;18.33;;;42.90;36.30;;;;;;5052236;28;20021;-78
2021/08/16 05:23:44;;;;;;;23.77;17.23;;;43.20;36.10;;;;;;5052710;28;20021;-80
2021/08/16 05:26:10;;;;;;;25.33;17.33;;;43.50;36.00;;;;;;5053099;28;20486;-79
2021/08/16 05:28:36;;;;;;;26.05;17.27;;;43.90;35.70;;;;;;5052535;28;20379;-80
2021/08/16 05:31:02;;;;;;;36.60;18.40;;;44.30;35.40;;;;;;5052415;28;20495;-79
2021/08/16 05:33:28;;;;;;;25.55;16.80;;;44.60;35.10;;;;;;5051984;28;20108;-81
2021/08/16 05:35:54;;;;;;;22.30;16.85;;;45.00;34.60;;;;;;5051325;28;20059;-80
2021/08/16 05:38:20;;;;;;;26.52;17.08;;;45.20;34.40;;;;;;5052165;28;20423;-80
2021/08/16 05:40:45;;;;;;;25.42;16.38;;;45.40;34.30;;;;;;5052300;28;20025;-78
2021/08/16 05:43:11;;;;;;;26.75;15.13;;;45.60;34.10;;;;;;5052195;28;20043;-79
2021/08/16 05:45:37;;;;;;;21.67;14.57;;;45.70;33.70;;;;;;5052164;28;20039;-75
2021/08/16 05:48:03;;;;;;;21.08;14.73;;;46.00;33.60;;;;;;5051911;28;20091;-78
2021/08/16 05:50:29;;;;;;;19.55;14.60;;;46.20;33.40;;;;;;5051238;28;20447;-79
2021/08/16 05:52:55;;;;;;;19.15;14.80;;;46.30;33.30;;;;;;5049952;28;20107;-79
2021/08/16 05:55:21;;;;;;;19.98;15.43;;;46.70;33.20;;;;;;5052256;28;20029;-79
2021/08/16 05:57:47;;;;;;;22.25;14.95;;;46.90;32.90;;;;;;5051875;28;20060;-77
2021/08/16 06:00:14;;;;;;;24.33;15.07;;;47.20;32.80;;;;;;5051888;28;20021;-77
2021/08/16 06:02:41;;;;;;;20.73;14.10;;;47.50;32.70;;;;;;5051944;28;20021;-78
2021/08/16 06:05:08;;;;;;;16.58;13.07;;;47.80;32.50;;;;;;5050530;28;20120;-77
2021/08/16 06:07:33;;;;;;;20.10;13.57;;;47.90;32.00;;;;;;5052070;28;20102;-79
2021/08/16 06:09:59;;;;;;;20.40;12.73;;;48.00;32.00;;;;;;5052034;28;20091;-78
2021/08/16 06:12:25;;;;;;;17.55;12.95;;;48.00;31.80;;;;;;5051756;28;20056;-78
2021/08/16 06:14:51;;;;;;;18.20;12.50;;;48.10;31.60;;;;;;5051859;28;20460;-78
2021/08/16 06:17:17;;;;;;;22.95;13.10;;;48.10;31.50;;;;;;5051724;28;20037;-77
2021/08/16 06:19:42;;;;;;;20.02;12.82;;;48.10;31.50;;;;;;5051531;28;20025;-79
2021/08/16 06:22:08;;;;;;;14.05;12.43;;;48.30;31.70;;;;;;5051474;28;20079;-77
2021/08/16 06:24:35;;;;;;;19.65;11.73;;;48.30;31.50;;;;;;5051886;28;20380;-79
2021/08/16 06:27:02;;;;;;;21.83;12.45;;;48.50;31.50;;;;;;5051407;28;20017;-79
2021/08/16 06:29:28;;;;;;;15.32;12.45;;;48.70;31.50;;;;;;5051487;28;20025;-79
2021/08/16 06:31:53;;;;;;;24.70;13.02;;;48.90;31.50;;;;;;5051145;28;20021;-78
2021/08/16 06:34:19;;;;;;;18.70;12.38;;;48.90;31.90;;;;;;5051325;28;20113;-78
2021/08/16 06:36:53;;;;;;;23.98;12.15;;;49.00;31.10;;;;;;5051426;28;20440;-77
2021/08/16 06:39:19;;;;;;;14.20;10.27;;;49.00;31.10;;;;;;5051051;28;20058;-78
2021/08/16 06:41:47;;;;;;;15.73;11.93;;;49.10;31.00;;;;;;5051180;28;20025;-77
2021/08/16 06:44:12;;;;;;;19.67;11.30;;;49.20;30.80;;;;;;5051429;28;20376;-79
2021/08/16 06:46:40;;;;;;;19.95;11.00;;;49.20;30.70;;;;;;5051731;28;20434;-78
2021/08/16 06:49:05;;;;;;;18.88;9.75;;;49.30;30.50;;;;;;5051467;28;20051;-78
2021/08/16 06:51:31;;;;;;;16.63;9.50;;;49.30;30.20;;;;;;5051325;28;20029;-79
2021/08/16 06:53:57;;;;;;;19.88;10.68;;;49.30;30.00;;;;;;5051449;28;20056;-78
2021/08/16 06:56:23;;;;;;;13.85;8.77;;;49.00;29.80;;;;;;5051222;28;20053;-78
2021/08/16 06:58:48;;;;;;;19.05;9.73;;;48.80;29.80;;;;;;5051361;28;20229;-78
2021/08/16 07:01:21;;;;;;;15.57;9.32;;;48.60;30.10;;;;;;5050897;28;20025;-79
2021/08/16 07:03:47;;;;;;;18.38;9.55;;;48.50;30.20;;;;;;5050793;28;20051;-78
2021/08/16 07:06:14;;;;;;;13.35;8.77;;;48.40;30.20;;;;;;5051215;28;20589;-78
2021/08/16 07:08:40;;;;;;;17.38;10.02;;;48.30;30.30;;;;;;5051223;28;20029;-78
2021/08/16 07:11:05;;;;;;;15.70;9.50;;;48.10;30.40;;;;;;5051314;28;20108;-78
2021/08/16 07:13:32;;;;;;;14.73;9.60;;;48.00;30.60;;;;;;5050138;28;20040;-78
2021/08/16 07:15:57;;;;;;;15.95;9.43;;;47.80;30.70;;;;;;5051265;28;20357;-78
2021/08/16 07:18:23;;;;;;;15.55;10.52;;;47.70;30.80;;;;;;5051402;28;20131;-77
2021/08/16 07:20:49;;;;;;;24.98;11.63;;;47.60;30.90;;;;;;5050820;28;20116;-78
2021/08/16 07:23:14;;;;;;;18.05;9.60;;;47.50;31.10;;;;;;5050910;28;20017;-77
2021/08/16 07:25:40;;;;;;;15.57;8.30;;;47.40;31.10;;;;;;5049439;28;20494;-79
2021/08/16 07:28:06;;;;;;;11.55;8.95;;;47.20;30.80;;;;;;5050627;28;20073;-79
2021/08/16 07:30:33;;;;;;;19.10;9.82;;;47.10;30.90;;;;;;5053253;28;20406;-79
2021/08/16 07:32:58;;;;;;;14.25;8.80;;;46.70;31.00;;;;;;5050975;28;20114;-78
2021/08/16 07:35:24;;;;;;;12.68;8.18;;;46.40;31.00;;;;;;5050992;28;20059;-79
2021/08/16 07:37:50;;;;;;;11.30;8.50;;;46.10;31.20;;;;;;5051523;28;20060;-79
2021/08/16 07:40:17;;;;;;;22.65;8.68;;;45.90;31.40;;;;;;5051111;28;20021;-79
2021/08/16 07:42:43;;;;;;;17.77;8.70;;;45.80;31.60;;;;;;5051194;28;20381;-75
2021/08/16 07:45:09;;;;;;;32.17;15.05;;;45.60;31.80;;;;;;5050791;28;20025;-79
2021/08/16 07:47:35;;;;;;;20.17;10.60;;;45.30;31.70;;;;;;5052085;28;20513;-73
2021/08/16 07:50:01;;;;;;;22.00;10.68;;;44.90;31.70;;;;;;5050809;28;20025;-74
2021/08/16 07:52:27;;;;;;;14.40;8.95;;;44.40;31.60;;;;;;5052085;28;20399;-76
2021/08/16 07:54:56;;;;;;;10.73;7.78;;;43.80;31.70;;;;;;5051662;28;20475;-75
2021/08/16 07:57:22;;;;;;;11.98;6.93;;;43.50;32.00;;;;;;5052606;28;20057;-77
2021/08/16 07:59:47;;;;;;;9.85;7.50;;;43.30;32.30;;;;;;5055126;28;20024;-76
2021/08/16 08:02:13;;;;;;;10.55;7.00;;;43.00;32.20;;;;;;5055542;28;20035;-77
2021/08/16 08:04:39;;;;;;;15.55;7.85;;;42.80;32.40;;;;;;5055290;28;20353;-78
2021/08/16 08:07:05;;;;;;;9.02;6.57;;;42.80;32.70;;;;;;5055491;28;20092;-76
2021/08/16 08:09:31;;;;;;;11.25;7.10;;;42.60;32.70;;;;;;5055961;28;20355;-76
2021/08/16 08:11:58;;;;;;;14.15;7.88;;;42.50;32.90;;;;;;5056628;28;20028;-76
2021/08/16 08:14:24;;;;;;;12.55;7.50;;;42.30;32.80;;;;;;5056531;28;20048;-77
2021/08/16 08:16:50;;;;;;;8.13;6.82;;;42.00;32.90;;;;;;5056472;28;20021;-77
2021/08/16 08:19:16;;;;;;;14.70;7.90;;;41.80;33.30;;;;;;5054640;28;20032;-77
2021/08/16 08:21:42;;;;;;;26.95;12.07;;;41.60;33.40;;;;;;5053730;28;20024;-76
2021/08/16 08:24:07;;;;;;;29.55;14.35;;;41.30;33.40;;;;;;5053890;28;20025;-76
2021/08/16 08:26:33;;;;;;;28.30;12.70;;;40.90;33.70;;;;;;5054292;28;20487;-77
2021/08/16 08:28:59;;;;;;;26.33;13.80;;;40.90;33.90;;;;;;5052970;28;20503;-76
2021/08/16 08:31:26;;;;;;;23.75;11.07;;;40.70;34.00;;;;;;5052865;28;20032;-76
2021/08/16 08:33:52;;;;;;;18.63;9.93;;;40.60;34.10;;;;;;5053975;28;20048;-77
2021/08/16 08:36:19;;;;;;;30.00;13.45;;;40.50;34.20;;;;;;5054041;28;20044;-76
2021/08/16 08:38:44;;;;;;;17.05;10.38;;;40.30;34.30;;;;;;5054126;28;20896;-77
2021/08/16 08:41:15;;;;;;;16.83;8.45;;;40.20;34.30;;;;;;5053908;28;20103;-77
2021/08/16 08:43:42;;;;;;;26.83;10.82;;;39.90;34.50;;;;;;5052257;28;20021;-76
2021/08/16 08:46:08;;;;;;;17.30;8.20;;;39.60;34.60;;;;;;5053657;28;20021;-77
2021/08/16 08:48:34;;;;;;;11.95;7.10;;;39.50;34.80;;;;;;5054051;28;20383;-77
2021/08/16 08:51:00;;;;;;;25.60;9.60;;;39.30;34.70;;;;;;5053723;28;20036;-75
2021/08/16 08:53:25;;;;;;;29.25;11.60;;;39.10;34.90;;;;;;5053719;28;20136;-77
2021/08/16 08:55:51;;;;;;;21.77;8.52;;;39.10;35.30;;;;;;5053264;28;20063;-75
2021/08/16 08:58:20;;;;;;;14.20;7.80;;;39.00;35.30;;;;;;5053574;28;20032;-77
2021/08/16 09:00:46;;;;;;;11.57;7.57;;;38.60;35.30;;;;;;5053467;28;20025;-77
2021/08/16 09:03:12;;;;;;;13.02;7.43;;;38.40;35.60;;;;;;5053117;28;20024;-76
2021/08/16 09:05:49;;;;;;;27.52;11.00;;;38.30;36.10;;;;;;5053131;28;20017;-78
2021/08/16 09:08:29;;;;;;;16.80;8.10;;;38.00;36.80;;;;;;5053610;28;20025;-76
2021/08/16 09:11:16;;;;;;;15.23;8.27;;;37.80;37.00;;;;;;5052399;28;20029;-76
2021/08/16 09:14:09;;;;;;;16.42;7.57;;;37.70;37.20;;;;;;5054061;28;20025;-76
2021/08/16 09:16:38;;;;;;;15.05;7.32;;;37.70;37.40;;;;;;5051869;28;20048;-77
2021/08/16 09:19:18;;;;;;;16.10;7.53;;;37.70;37.40;;;;;;5052583;28;20026;-77
2021/08/16 09:21:50;;;;;;;16.67;7.90;;;37.50;37.50;;;;;;5053004;28;20029;-76
2021/08/16 09:24:25;;;;;;;22.58;7.80;;;37.50;37.70;;;;;;5052998;28;20063;-76
2021/08/16 09:26:52;;;;;;;11.45;7.15;;;37.40;38.00;;;;;;5051348;28;20029;-76
2021/08/16 09:29:20;;;;;;;10.95;6.70;;;37.20;37.80;;;;;;5051556;28;20067;-76
2021/08/16 09:31:53;;;;;;;16.92;6.75;;;37.20;37.90;;;;;;5051503;28;20025;-76
2021/08/16 09:34:35;;;;;;;12.85;6.15;;;37.10;37.70;;;;;;5052540;28;20024;-77
2021/08/16 09:37:02;;;;;;;10.15;7.28;;;37.00;37.30;;;;;;5052840;28;20070;-77
2021/08/16 09:39:32;;;;;;;12.77;7.03;;;36.90;38.20;;;;;;5052796;28;20028;-78
2021/08/16 09:42:00;;;;;;;14.45;7.32;;;36.60;37.80;;;;;;5052579;28;20032;-77
2021/08/16 09:44:27;;;;;;;10.40;7.55;;;36.30;38.30;;;;;;5052542;28;20375;-77
2021/08/16 09:47:04;;;;;;;9.98;7.47;;;36.20;38.80;;;;;;5050979;28;20040;-77
2021/08/16 09:49:30;;;;;;;16.15;7.28;;;36.00;39.30;;;;;;5052550;28;20066;-77
2021/08/16 09:52:06;;;;;;;17.30;7.85;;;36.00;39.60;;;;;;5052470;28;20025;-77
2021/08/16 09:54:36;;;;;;;13.60;8.45;;;36.10;40.00;;;;;;5052442;28;20467;-77
2021/08/16 09:57:04;;;;;;;10.93;7.28;;;36.10;40.30;;;;;;5053054;28;20052;-77
2021/08/16 09:59:30;;;;;;;16.58;8.23;;;36.10;40.30;;;;;;5052218;28;20475;-77
2021/08/16 10:01:57;;;;;;;17.48;7.45;;;36.20;40.50;;;;;;5051847;28;20036;-78
2021/08/16 10:04:24;;;;;;;12.48;7.30;;;36.30;40.30;;;;;;5052078;28;20071;-76
2021/08/16 10:06:53;;;;;;;15.00;7.50;;;36.30;40.30;;;;;;5051246;28;20033;-77
2021/08/16 10:09:22;;;;;;;10.32;7.50;;;36.30;40.40;;;;;;5051823;28;20045;-77
2021/08/16 10:11:51;;;;;;;13.35;7.47;;;36.20;40.30;;;;;;5051674;28;20025;-77
2021/08/16 10:14:23;;;;;;;13.13;6.70;;;36.30;40.10;;;;;;5052024;28;20025;-76
2021/08/16 10:16:52;;;;;;;18.27;7.20;;;36.20;39.90;;;;;;5051546;28;20028;-76
2021/08/16 10:19:30;;;;;;;12.85;6.80;;;36.10;40.10;;;;;;5051718;28;20383;-76
2021/08/16 10:22:00;;;;;;;18.90;7.20;;;36.10;39.80;;;;;;5051003;28;20044;-75
2021/08/16 10:24:30;;;;;;;11.23;7.47;;;36.00;40.00;;;;;;5051678;28;20103;-75
2021/08/16 10:26:58;;;;;;;11.82;7.40;;;36.00;40.00;;;;;;5051422;28;20521;-76
2021/08/16 10:29:24;;;;;;;14.88;7.13;;;36.00;39.50;;;;;;5052011;28;20029;-75
2021/08/16 10:31:52;;;;;;;12.43;8.00;;;35.90;40.20;;;;;;5051610;28;20428;-76
2021/08/16 10:34:45;;;;;;;11.52;7.65;;;35.80;40.00;;;;;;5051654;28;20029;-74
2021/08/16 10:37:15;;;;;;;12.10;7.18;;;35.60;39.90;;;;;;5049526;28;20116;-76
2021/08/16 10:39:49;;;;;;;13.70;7.18;;;35.60;40.30;;;;;;5051089;28;20025;-75
2021/08/16 10:42:18;;;;;;;10.70;7.15;;;35.60;40.20;;;;;;5051354;28;20032;-75
2021/08/16 10:44:46;;;;;;;11.13;7.07;;;35.50;40.20;;;;;;5050428;28;20047;-76
2021/08/16 10:47:30;;;;;;;10.23;7.18;;;35.30;40.30;;;;;;5051200;28;20074;-75
2021/08/16 10:50:10;;;;;;;13.38;7.55;;;35.20;40.60;;;;;;5051379;28;20025;-76
2021/08/16 10:52:38;;;;;;;14.93;6.72;;;35.20;40.10;;;;;;5050413;28;20056;-76
2021/08/16 10:55:12;;;;;;;13.52;7.05;;;35.10;40.00;;;;;;5051262;28;20025;-77
2021/08/16 10:57:39;;;;;;;14.07;7.78;;;35.00;39.90;;;;;;5049475;28;20495;-76
2021/08/16 11:00:06;;;;;;;10.18;7.20;;;35.00;40.00;;;;;;5051072;28;20024;-77
2021/08/16 11:02:33;;;;;;;15.43;7.03;;;35.00;40.20;;;;;;5050959;28;20040;-75
2021/08/16 11:05:00;;;;;;;14.75;8.02;;;34.90;40.30;;;;;;5051123;28;20013;-76
2021/08/16 11:07:26;;;;;;;8.95;7.10;;;34.90;40.40;;;;;;5051350;28;20029;-75
2021/08/16 11:10:00;;;;;;;11.05;7.03;;;34.90;40.00;;;;;;5050197;28;20067;-76
2021/08/16 11:12:43;;;;;;;10.63;6.38;;;34.90;39.70;;;;;;5051705;28;20021;-76
2021/08/16 11:15:14;;;;;;;10.65;6.95;;;34.90;39.50;;;;;;5049991;28;20029;-76
2021/08/16 11:17:40;;;;;;;9.80;6.10;;;34.90;39.30;;;;;;5050877;28;20031;-76
2021/08/16 11:20:14;;;;;;;12.32;6.82;;;34.90;38.90;;;;;;5051305;28;20033;-77
2021/08/16 11:22:45;;;;;;;8.10;6.82;;;34.90;39.10;;;;;;5050216;28;20033;-77
2021/08/16 11:25:13;;;;;;;11.55;6.28;;;34.90;39.20;;;;;;5051088;28;20021;-77
2021/08/16 11:27:42;;;;;;;11.38;6.35;;;34.80;39.20;;;;;;5050651;28;20021;-76
2021/08/16 11:30:09;;;;;;;8.98;6.45;;;34.70;39.20;;;;;;5050579;28;20017;-76
2021/08/16 11:32:38;;;;;;;10.45;7.43;;;34.60;39.50;;;;;;5051041;28;20059;-76
2021/08/16 11:35:05;;;;;;;9.15;6.40;;;34.50;39.70;;;;;;5054838;28;20017;-76
2021/08/16 11:37:38;;;;;;;8.10;7.22;;;34.50;39.70;;;;;;5054650;28;20025;-75
2021/08/16 11:40:05;;;;;;;8.48;6.32;;;34.50;39.70;;;;;;5054599;28;20108;-76
2021/08/16 11:42:31;;;;;;;10.98;6.60;;;34.40;39.60;;;;;;5054512;28;20095;-76
2021/08/16 11:44:58;;;;;;;13.13;6.32;;;34.40;39.60;;;;;;5054550;28;20353;-77
2021/08/16 11:47:37;;;;;;;11.07;6.50;;;34.30;39.40;;;;;;5054730;28;20025;-77
2021/08/16 11:50:09;;;;;;;10.73;6.45;;;34.10;39.30;;;;;;5054697;28;20021;-77
2021/08/16 11:52:36;;;;;;;14.30;7.30;;;33.90;39.50;;;;;;5054166;28;20053;-77
2021/08/16 11:55:06;;;;;;;11.55;7.28;;;33.80;40.10;;;;;;5054426;28;20028;-77
2021/08/16 11:57:36;;;;;;;11.13;6.50;;;33.60;40.70;;;;;;5054478;28;20053;-77
2021/08/16 12:00:06;;;;;;;9.85;6.78;;;33.50;40.40;;;;;;5054039;28;20471;-76
2021/08/16 12:02:36;;;;;;;10.48;6.50;;;33.50;40.70;;;;;;5052615;28;20525;-75
2021/08/16 12:05:03;;;;;;;12.82;7.38;;;33.40;40.40;;;;;;5054534;28;20078;-76
2021/08/16 12:07:30;;;;;;;16.73;8.27;;;33.30;41.20;;;;;;5054768;28;20021;-77
2021/08/16 12:09:57;;;;;;;18.73;9.02;;;33.30;42.30;;;;;;5054376;28;20048;-77
2021/08/16 12:12:32;;;;;;;22.85;9.35;;;33.30;43.10;;;;;;5053052;28;20017;-76
2021/08/16 12:15:14;;;;;;;13.30;8.55;;;33.20;43.40;;;;;;5051273;28;20052;-74
2021/08/16 12:17:44;;;;;;;22.15;8.32;;;33.10;43.60;;;;;;5053923;28;20395;-76
2021/08/16 12:20:14;;;;;;;15.77;8.00;;;33.10;43.80;;;;;;5054062;28;20033;-76
2021/08/16 12:22:53;;;;;;;15.52;8.52;;;33.10;44.00;;;;;;5053962;28;20108;-75
2021/08/16 12:25:20;;;;;;;15.40;8.40;;;33.00;44.40;;;;;;5053927;28;20056;-76
2021/08/16 12:27:56;;;;;;;12.73;7.38;;;32.90;44.50;;;;;;5054115;28;20100;-76
2021/08/16 12:30:22;;;;;;;14.02;8.40;;;32.70;44.50;;;;;;5053635;28;20021;-76
2021/08/16 12:32:48;;;;;;;16.05;6.95;;;32.50;44.80;;;;;;5053706;28;20021;-76